sensor_id;sensor_type;location;lat;lon;timestamp;temperature;humidity
29777;DHT22;16677;52.224;7.484;2022-12-07T00:01:38;5.40;99.90
29777;DHT22;16677;52.224;7.484;2022-12-07T00:04:07;5.50;99.90
29777;DHT22;16677;52.224;7.484;2022-12-07T00:06:43;5.40;99.90
29777;DHT22;16677;52.224;7.484;2022-12-07T00:09:15;5.40;99.90
29777;DHT22;16677;52.224;7.484;2022-12-07T00:11:44;5.50;99.90
29777;DHT22;16677;52.224;7.484;2022-12-07T00:14:13;5.40;99.90
29777;DHT22;16677;52.224;7.484;2022-12-07T00:16:42;5.40;99.90
29777;DHT22;16677;52.224;7.484;2022-12-07T00:19:11;5.40;99.90
29777;DHT22;16677;52.224;7.484;2022-12-07T00:21:39;5.40;99.90
29777;DHT22;16677;52.224;7.484;2022-12-07T00:24:07;5.40;99.90
29777;DHT22;16677;52.224;7.484;2022-12-07T00:26:37;5.40;99.90
29777;DHT22;16677;52.224;7.484;2022-12-07T00:29:17;5.40;99.90
29777;DHT22;16677;52.224;7.484;2022-12-07T00:31:44;5.40;99.90
29777;DHT22;16677;52.224;7.484;2022-12-07T00:34:15;5.30;99.90
29777;DHT22;16677;52.224;7.484;2022-12-07T00:36:43;5.30;99.90
29777;DHT22;16677;52.224;7.484;2022-12-07T00:39:10;5.30;99.90
29777;DHT22;16677;52.224;7.484;2022-12-07T00:41:38;5.20;99.90
29777;DHT22;16677;52.224;7.484;2022-12-07T00:44:05;5.20;99.90
29777;DHT22;16677;52.224;7.484;2022-12-07T00:46:32;5.20;99.90
29777;DHT22;16677;52.224;7.484;2022-12-07T00:49:00;5.10;99.90
29777;DHT22;16677;52.224;7.484;2022-12-07T00:51:27;5.10;99.90
29777;DHT22;16677;52.224;7.484;2022-12-07T00:53:55;5.10;99.90
29777;DHT22;16677;52.224;7.484;2022-12-07T00:56:28;5.10;99.90
29777;DHT22;16677;52.224;7.484;2022-12-07T00:58:56;5.00;99.90
29777;DHT22;16677;52.224;7.484;2022-12-07T01:01:26;4.90;99.90
29777;DHT22;16677;52.224;7.484;2022-12-07T01:03:56;4.90;99.90
29777;DHT22;16677;52.224;7.484;2022-12-07T01:06:26;4.80;99.90
29777;DHT22;16677;52.224;7.484;2022-12-07T01:08:54;4.70;99.90
29777;DHT22;16677;52.224;7.484;2022-12-07T01:11:25;4.70;99.90
29777;DHT22;16677;52.224;7.484;2022-12-07T01:13:54;4.70;99.90
29777;DHT22;16677;52.224;7.484;2022-12-07T01:16:25;4.60;99.90
29777;DHT22;16677;52.224;7.484;2022-12-07T01:18:55;4.60;99.90
29777;DHT22;16677;52.224;7.484;2022-12-07T01:21:26;4.30;99.90
29777;DHT22;16677;52.224;7.484;2022-12-07T01:23:53;4.40;99.90
29777;DHT22;16677;52.224;7.484;2022-12-07T01:26:23;4.70;99.90
29777;DHT22;16677;52.224;7.484;2022-12-07T01:28:51;4.50;99.90
29777;DHT22;16677;52.224;7.484;2022-12-07T01:31:20;4.40;99.90
29777;DHT22;16677;52.224;7.484;2022-12-07T01:33:51;4.40;99.90
29777;DHT22;16677;52.224;7.484;2022-12-07T01:36:29;4.40;99.90
29777;DHT22;16677;52.224;7.484;2022-12-07T01:38:59;4.30;99.90
29777;DHT22;16677;52.224;7.484;2022-12-07T01:41:30;4.40;99.90
29777;DHT22;16677;52.224;7.484;2022-12-07T01:46:40;4.30;99.90
29777;DHT22;16677;52.224;7.484;2022-12-07T01:49:15;4.30;99.90
29777;DHT22;16677;52.224;7.484;2022-12-07T01:51:43;4.30;99.90
29777;DHT22;16677;52.224;7.484;2022-12-07T01:54:13;4.20;99.90
29777;DHT22;16677;52.224;7.484;2022-12-07T01:56:47;4.20;99.90
29777;DHT22;16677;52.224;7.484;2022-12-07T01:59:16;4.20;99.90
29777;DHT22;16677;52.224;7.484;2022-12-07T02:01:44;4.10;99.90
29777;DHT22;16677;52.224;7.484;2022-12-07T02:04:12;4.10;99.90
29777;DHT22;16677;52.224;7.484;2022-12-07T02:06:40;4.00;99.90
29777;DHT22;16677;52.224;7.484;2022-12-07T02:09:08;4.00;99.90
29777;DHT22;16677;52.224;7.484;2022-12-07T02:11:35;4.00;99.90
29777;DHT22;16677;52.224;7.484;2022-12-07T02:14:02;4.00;99.90
29777;DHT22;16677;52.224;7.484;2022-12-07T02:16:42;4.00;99.90
29777;DHT22;16677;52.224;7.484;2022-12-07T02:19:36;3.90;99.90
29777;DHT22;16677;52.224;7.484;2022-12-07T02:30:00;3.80;99.90
29777;DHT22;16677;52.224;7.484;2022-12-07T02:35:09;3.80;99.90
29777;DHT22;16677;52.224;7.484;2022-12-07T02:37:49;3.70;99.90
29777;DHT22;16677;52.224;7.484;2022-12-07T02:43:09;3.70;99.90
29777;DHT22;16677;52.224;7.484;2022-12-07T02:45:40;3.70;99.90
29777;DHT22;16677;52.224;7.484;2022-12-07T02:48:10;3.60;99.90
29777;DHT22;16677;52.224;7.484;2022-12-07T02:50:39;3.60;99.90
29777;DHT22;16677;52.224;7.484;2022-12-07T03:07:03;3.50;99.90
29777;DHT22;16677;52.224;7.484;2022-12-07T03:09:37;3.50;99.90
29777;DHT22;16677;52.224;7.484;2022-12-07T03:12:20;3.50;99.90
29777;DHT22;16677;52.224;7.484;2022-12-07T03:14:55;3.50;99.90
29777;DHT22;16677;52.224;7.484;2022-12-07T03:17:27;3.50;99.90
29777;DHT22;16677;52.224;7.484;2022-12-07T03:19:58;3.50;99.90
29777;DHT22;16677;52.224;7.484;2022-12-07T03:22:30;3.50;99.90
29777;DHT22;16677;52.224;7.484;2022-12-07T03:25:00;3.50;99.90
29777;DHT22;16677;52.224;7.484;2022-12-07T03:27:35;3.50;99.90
29777;DHT22;16677;52.224;7.484;2022-12-07T03:30:04;3.40;99.90
29777;DHT22;16677;52.224;7.484;2022-12-07T03:32:40;3.50;99.90
29777;DHT22;16677;52.224;7.484;2022-12-07T03:38:31;3.30;99.90
29777;DHT22;16677;52.224;7.484;2022-12-07T03:43:13;3.40;99.90
29777;DHT22;16677;52.224;7.484;2022-12-07T03:45:43;3.40;99.90
29777;DHT22;16677;52.224;7.484;2022-12-07T03:48:22;3.40;99.90
29777;DHT22;16677;52.224;7.484;2022-12-07T03:53:54;3.40;99.90
29777;DHT22;16677;52.224;7.484;2022-12-07T03:56:25;3.40;99.90
29777;DHT22;16677;52.224;7.484;2022-12-07T03:58:53;3.50;99.90
29777;DHT22;16677;52.224;7.484;2022-12-07T04:01:22;3.50;99.90
29777;DHT22;16677;52.224;7.484;2022-12-07T04:03:49;3.60;99.90
29777;DHT22;16677;52.224;7.484;2022-12-07T04:06:16;3.70;99.90
29777;DHT22;16677;52.224;7.484;2022-12-07T04:08:44;3.40;99.90
29777;DHT22;16677;52.224;7.484;2022-12-07T04:11:12;3.60;99.90
29777;DHT22;16677;52.224;7.484;2022-12-07T04:13:39;3.70;99.90
29777;DHT22;16677;52.224;7.484;2022-12-07T04:16:25;3.70;99.90
29777;DHT22;16677;52.224;7.484;2022-12-07T04:18:52;3.60;99.90
29777;DHT22;16677;52.224;7.484;2022-12-07T04:21:19;3.60;99.90
29777;DHT22;16677;52.224;7.484;2022-12-07T04:23:46;3.60;99.90
29777;DHT22;16677;52.224;7.484;2022-12-07T04:26:13;3.60;99.90
29777;DHT22;16677;52.224;7.484;2022-12-07T04:28:40;3.50;99.90
29777;DHT22;16677;52.224;7.484;2022-12-07T04:31:07;3.60;99.90
29777;DHT22;16677;52.224;7.484;2022-12-07T04:33:35;3.50;99.90
29777;DHT22;16677;52.224;7.484;2022-12-07T04:36:17;3.50;99.90
29777;DHT22;16677;52.224;7.484;2022-12-07T04:38:47;3.50;99.90
29777;DHT22;16677;52.224;7.484;2022-12-07T04:41:14;3.50;99.90
29777;DHT22;16677;52.224;7.484;2022-12-07T04:43:41;3.60;99.90
29777;DHT22;16677;52.224;7.484;2022-12-07T04:46:08;3.60;99.90
29777;DHT22;16677;52.224;7.484;2022-12-07T04:48:35;3.60;99.90
29777;DHT22;16677;52.224;7.484;2022-12-07T04:51:03;3.70;99.90
29777;DHT22;16677;52.224;7.484;2022-12-07T04:53:30;3.60;99.90
29777;DHT22;16677;52.224;7.484;2022-12-07T04:55:57;3.60;99.90
29777;DHT22;16677;52.224;7.484;2022-12-07T04:58:24;3.70;99.90
29777;DHT22;16677;52.224;7.484;2022-12-07T05:00:54;3.60;99.90
29777;DHT22;16677;52.224;7.484;2022-12-07T05:03:22;3.60;99.90
29777;DHT22;16677;52.224;7.484;2022-12-07T05:05:49;3.60;99.90
29777;DHT22;16677;52.224;7.484;2022-12-07T05:08:16;3.60;99.90
29777;DHT22;16677;52.224;7.484;2022-12-07T05:10:43;3.60;99.90
29777;DHT22;16677;52.224;7.484;2022-12-07T05:13:11;3.60;99.90
29777;DHT22;16677;52.224;7.484;2022-12-07T05:15:40;3.60;99.90
29777;DHT22;16677;52.224;7.484;2022-12-07T05:18:07;3.60;99.90
29777;DHT22;16677;52.224;7.484;2022-12-07T05:20:35;3.60;99.90
29777;DHT22;16677;52.224;7.484;2022-12-07T05:23:08;3.60;99.90
29777;DHT22;16677;52.224;7.484;2022-12-07T05:25:35;3.60;99.90
29777;DHT22;16677;52.224;7.484;2022-12-07T05:28:03;3.70;99.90
29777;DHT22;16677;52.224;7.484;2022-12-07T05:30:31;3.70;99.90
29777;DHT22;16677;52.224;7.484;2022-12-07T05:32:58;3.60;99.90
29777;DHT22;16677;52.224;7.484;2022-12-07T05:35:25;3.60;99.90
29777;DHT22;16677;52.224;7.484;2022-12-07T05:37:52;3.60;99.90
29777;DHT22;16677;52.224;7.484;2022-12-07T05:40:19;3.60;99.90
29777;DHT22;16677;52.224;7.484;2022-12-07T05:42:47;3.70;99.90
29777;DHT22;16677;52.224;7.484;2022-12-07T05:45:15;3.80;99.90
29777;DHT22;16677;52.224;7.484;2022-12-07T05:47:42;3.60;99.90
29777;DHT22;16677;52.224;7.484;2022-12-07T05:50:11;3.70;99.90
29777;DHT22;16677;52.224;7.484;2022-12-07T05:52:56;3.70;99.90
29777;DHT22;16677;52.224;7.484;2022-12-07T05:55:27;3.70;99.90
29777;DHT22;16677;52.224;7.484;2022-12-07T05:57:58;3.70;99.90
29777;DHT22;16677;52.224;7.484;2022-12-07T06:00:59;3.70;99.90
29777;DHT22;16677;52.224;7.484;2022-12-07T06:03:28;3.50;99.90
29777;DHT22;16677;52.224;7.484;2022-12-07T06:06:02;3.70;99.90
29777;DHT22;16677;52.224;7.484;2022-12-07T06:08:36;3.70;99.90
29777;DHT22;16677;52.224;7.484;2022-12-07T06:11:03;3.70;99.90
29777;DHT22;16677;52.224;7.484;2022-12-07T06:13:49;3.70;99.90
29777;DHT22;16677;52.224;7.484;2022-12-07T06:16:16;3.60;99.90
29777;DHT22;16677;52.224;7.484;2022-12-07T06:18:43;3.60;99.90
29777;DHT22;16677;52.224;7.484;2022-12-07T06:21:10;3.60;99.90
29777;DHT22;16677;52.224;7.484;2022-12-07T06:23:36;3.50;99.90
29777;DHT22;16677;52.224;7.484;2022-12-07T06:26:03;3.40;99.90
29777;DHT22;16677;52.224;7.484;2022-12-07T06:28:31;3.40;99.90
29777;DHT22;16677;52.224;7.484;2022-12-07T06:30:59;3.30;99.90
29777;DHT22;16677;52.224;7.484;2022-12-07T06:33:27;3.40;99.90
29777;DHT22;16677;52.224;7.484;2022-12-07T06:35:54;3.30;99.90
29777;DHT22;16677;52.224;7.484;2022-12-07T06:38:21;3.30;99.90
29777;DHT22;16677;52.224;7.484;2022-12-07T06:40:48;3.30;99.90
29777;DHT22;16677;52.224;7.484;2022-12-07T06:43:15;3.20;99.90
29777;DHT22;16677;52.224;7.484;2022-12-07T06:45:42;3.20;99.90
29777;DHT22;16677;52.224;7.484;2022-12-07T06:48:09;3.10;99.90
29777;DHT22;16677;52.224;7.484;2022-12-07T06:50:35;3.10;99.90
29777;DHT22;16677;52.224;7.484;2022-12-07T06:53:02;3.10;99.90
29777;DHT22;16677;52.224;7.484;2022-12-07T06:55:29;3.10;99.90
29777;DHT22;16677;52.224;7.484;2022-12-07T07:00:26;3.20;99.90
29777;DHT22;16677;52.224;7.484;2022-12-07T07:02:53;3.20;99.90
29777;DHT22;16677;52.224;7.484;2022-12-07T07:05:20;3.20;99.90
29777;DHT22;16677;52.224;7.484;2022-12-07T07:07:50;3.20;99.90
29777;DHT22;16677;52.224;7.484;2022-12-07T07:10:37;3.30;99.90
29777;DHT22;16677;52.224;7.484;2022-12-07T07:13:05;3.10;99.90
29777;DHT22;16677;52.224;7.484;2022-12-07T07:15:33;3.30;99.90
29777;DHT22;16677;52.224;7.484;2022-12-07T07:18:00;3.40;99.90
29777;DHT22;16677;52.224;7.484;2022-12-07T07:20:33;3.50;99.90
29777;DHT22;16677;52.224;7.484;2022-12-07T07:23:00;3.40;99.90
29777;DHT22;16677;52.224;7.484;2022-12-07T07:25:27;3.40;99.90
29777;DHT22;16677;52.224;7.484;2022-12-07T07:27:54;3.50;99.90
29777;DHT22;16677;52.224;7.484;2022-12-07T07:30:21;3.50;99.90
29777;DHT22;16677;52.224;7.484;2022-12-07T07:32:48;3.50;99.90
29777;DHT22;16677;52.224;7.484;2022-12-07T07:35:15;3.50;99.90
29777;DHT22;16677;52.224;7.484;2022-12-07T07:37:42;3.50;99.90
29777;DHT22;16677;52.224;7.484;2022-12-07T07:40:09;3.50;99.90
29777;DHT22;16677;52.224;7.484;2022-12-07T07:42:36;3.50;99.90
29777;DHT22;16677;52.224;7.484;2022-12-07T07:45:03;3.40;99.90
29777;DHT22;16677;52.224;7.484;2022-12-07T07:47:31;3.40;99.90
29777;DHT22;16677;52.224;7.484;2022-12-07T07:49:58;3.40;99.90
29777;DHT22;16677;52.224;7.484;2022-12-07T07:52:25;3.30;99.90
29777;DHT22;16677;52.224;7.484;2022-12-07T07:54:52;3.30;99.90
29777;DHT22;16677;52.224;7.484;2022-12-07T07:57:19;3.30;99.90
29777;DHT22;16677;52.224;7.484;2022-12-07T07:59:46;3.20;99.90
29777;DHT22;16677;52.224;7.484;2022-12-07T08:02:18;3.20;99.90
29777;DHT22;16677;52.224;7.484;2022-12-07T08:04:45;3.30;99.90
29777;DHT22;16677;52.224;7.484;2022-12-07T08:07:14;3.20;99.90
29777;DHT22;16677;52.224;7.484;2022-12-07T08:09:41;3.20;99.90
29777;DHT22;16677;52.224;7.484;2022-12-07T08:12:08;3.30;99.90
29777;DHT22;16677;52.224;7.484;2022-12-07T08:14:35;3.40;99.90
29777;DHT22;16677;52.224;7.484;2022-12-07T08:17:02;3.50;99.90
29777;DHT22;16677;52.224;7.484;2022-12-07T08:19:29;3.40;99.90
29777;DHT22;16677;52.224;7.484;2022-12-07T08:21:56;3.50;99.90
29777;DHT22;16677;52.224;7.484;2022-12-07T08:24:23;3.60;99.90
29777;DHT22;16677;52.224;7.484;2022-12-07T08:26:52;3.50;99.90
29777;DHT22;16677;52.224;7.484;2022-12-07T08:29:19;3.60;99.90
29777;DHT22;16677;52.224;7.484;2022-12-07T08:31:46;3.60;99.90
29777;DHT22;16677;52.224;7.484;2022-12-07T08:34:13;3.70;99.90
29777;DHT22;16677;52.224;7.484;2022-12-07T08:36:40;3.60;99.90
29777;DHT22;16677;52.224;7.484;2022-12-07T08:39:07;3.80;99.90
29777;DHT22;16677;52.224;7.484;2022-12-07T08:41:54;3.80;99.90
29777;DHT22;16677;52.224;7.484;2022-12-07T08:44:21;3.80;99.90
29777;DHT22;16677;52.224;7.484;2022-12-07T08:46:55;3.80;99.90
29777;DHT22;16677;52.224;7.484;2022-12-07T08:49:31;3.80;99.90
29777;DHT22;16677;52.224;7.484;2022-12-07T08:51:59;3.90;99.90
29777;DHT22;16677;52.224;7.484;2022-12-07T08:54:28;3.90;99.90
29777;DHT22;16677;52.224;7.484;2022-12-07T08:56:56;3.90;99.90
29777;DHT22;16677;52.224;7.484;2022-12-07T08:59:26;3.90;99.90
29777;DHT22;16677;52.224;7.484;2022-12-07T09:01:55;4.00;99.90
29777;DHT22;16677;52.224;7.484;2022-12-07T09:04:22;4.00;99.90
29777;DHT22;16677;52.224;7.484;2022-12-07T09:06:49;3.90;99.90
29777;DHT22;16677;52.224;7.484;2022-12-07T09:09:16;3.90;99.90
29777;DHT22;16677;52.224;7.484;2022-12-07T09:11:42;3.90;99.90
29777;DHT22;16677;52.224;7.484;2022-12-07T09:14:12;3.90;99.90
29777;DHT22;16677;52.224;7.484;2022-12-07T09:16:39;4.00;99.90
29777;DHT22;16677;52.224;7.484;2022-12-07T09:19:08;4.00;99.90
29777;DHT22;16677;52.224;7.484;2022-12-07T09:21:35;4.10;99.90
29777;DHT22;16677;52.224;7.484;2022-12-07T09:24:02;4.10;99.90
29777;DHT22;16677;52.224;7.484;2022-12-07T09:26:29;4.30;99.90
29777;DHT22;16677;52.224;7.484;2022-12-07T09:28:55;4.40;99.90
29777;DHT22;16677;52.224;7.484;2022-12-07T09:31:22;4.30;99.90
29777;DHT22;16677;52.224;7.484;2022-12-07T09:33:59;4.40;99.90
29777;DHT22;16677;52.224;7.484;2022-12-07T09:36:27;4.50;99.90
29777;DHT22;16677;52.224;7.484;2022-12-07T09:38:54;4.40;99.90
29777;DHT22;16677;52.224;7.484;2022-12-07T09:41:23;4.40;99.90
29777;DHT22;16677;52.224;7.484;2022-12-07T09:43:51;4.40;99.90
29777;DHT22;16677;52.224;7.484;2022-12-07T09:46:20;4.50;99.90
29777;DHT22;16677;52.224;7.484;2022-12-07T09:48:48;4.60;99.90
29777;DHT22;16677;52.224;7.484;2022-12-07T09:51:22;4.70;99.90
29777;DHT22;16677;52.224;7.484;2022-12-07T09:53:56;4.70;99.90
29777;DHT22;16677;52.224;7.484;2022-12-07T09:56:25;4.70;99.90
29777;DHT22;16677;52.224;7.484;2022-12-07T09:58:59;4.70;99.90
29777;DHT22;16677;52.224;7.484;2022-12-07T10:01:30;4.70;99.90
29777;DHT22;16677;52.224;7.484;2022-12-07T10:06:33;4.70;99.90
29777;DHT22;16677;52.224;7.484;2022-12-07T10:09:00;4.80;99.90
29777;DHT22;16677;52.224;7.484;2022-12-07T10:11:27;4.80;99.90
29777;DHT22;16677;52.224;7.484;2022-12-07T10:13:54;4.90;99.90
29777;DHT22;16677;52.224;7.484;2022-12-07T10:18:51;4.80;99.90
29777;DHT22;16677;52.224;7.484;2022-12-07T10:21:20;4.80;99.90
29777;DHT22;16677;52.224;7.484;2022-12-07T10:24:14;4.80;99.90
29777;DHT22;16677;52.224;7.484;2022-12-07T10:26:51;4.80;99.90
29777;DHT22;16677;52.224;7.484;2022-12-07T10:34:42;5.00;99.90
29777;DHT22;16677;52.224;7.484;2022-12-07T10:37:19;5.10;99.90
29777;DHT22;16677;52.224;7.484;2022-12-07T10:42:22;5.50;99.90
29777;DHT22;16677;52.224;7.484;2022-12-07T10:45:06;5.40;99.90
29777;DHT22;16677;52.224;7.484;2022-12-07T10:47:38;5.50;99.90
29777;DHT22;16677;52.224;7.484;2022-12-07T11:03:51;5.50;99.90
29777;DHT22;16677;52.224;7.484;2022-12-07T11:20:53;6.00;99.90
29777;DHT22;16677;52.224;7.484;2022-12-07T11:32:00;5.60;99.90
29777;DHT22;16677;52.224;7.484;2022-12-07T11:34:55;5.60;99.90
29777;DHT22;16677;52.224;7.484;2022-12-07T11:37:30;5.60;99.90
29777;DHT22;16677;52.224;7.484;2022-12-07T11:45:44;5.80;99.90
29777;DHT22;16677;52.224;7.484;2022-12-07T11:48:22;6.00;99.90
29777;DHT22;16677;52.224;7.484;2022-12-07T11:50:57;5.90;99.90
29777;DHT22;16677;52.224;7.484;2022-12-07T11:56:18;6.10;99.90
29777;DHT22;16677;52.224;7.484;2022-12-07T11:59:01;6.20;99.90
29777;DHT22;16677;52.224;7.484;2022-12-07T12:06:43;6.10;99.90
29777;DHT22;16677;52.224;7.484;2022-12-07T12:09:14;6.10;99.90
29777;DHT22;16677;52.224;7.484;2022-12-07T12:20:56;6.30;99.90
29777;DHT22;16677;52.224;7.484;2022-12-07T12:23:40;6.20;99.90
29777;DHT22;16677;52.224;7.484;2022-12-07T12:26:16;6.30;99.90
29777;DHT22;16677;52.224;7.484;2022-12-07T12:28:51;6.30;99.90
29777;DHT22;16677;52.224;7.484;2022-12-07T12:33:57;6.20;99.90
29777;DHT22;16677;52.224;7.484;2022-12-07T12:41:55;6.30;99.90
29777;DHT22;16677;52.224;7.484;2022-12-07T12:46:53;6.30;99.90
29777;DHT22;16677;52.224;7.484;2022-12-07T12:51:58;6.30;99.90
29777;DHT22;16677;52.224;7.484;2022-12-07T12:54:32;6.20;99.90
29777;DHT22;16677;52.224;7.484;2022-12-07T12:57:26;6.20;99.90
29777;DHT22;16677;52.224;7.484;2022-12-07T13:02:31;6.40;99.90
29777;DHT22;16677;52.224;7.484;2022-12-07T13:15:39;6.20;99.90
29777;DHT22;16677;52.224;7.484;2022-12-07T13:29:20;6.10;99.90
29777;DHT22;16677;52.224;7.484;2022-12-07T13:39:51;6.00;99.90
29777;DHT22;16677;52.224;7.484;2022-12-07T13:42:29;6.00;99.90
29777;DHT22;16677;52.224;7.484;2022-12-07T13:44:58;5.90;99.90
29777;DHT22;16677;52.224;7.484;2022-12-07T13:47:36;5.90;99.90
29777;DHT22;16677;52.224;7.484;2022-12-07T13:52:49;5.80;99.90
29777;DHT22;16677;52.224;7.484;2022-12-07T13:55:16;5.90;99.90
29777;DHT22;16677;52.224;7.484;2022-12-07T13:57:45;5.90;99.90
29777;DHT22;16677;52.224;7.484;2022-12-07T14:00:19;5.70;99.90
29777;DHT22;16677;52.224;7.484;2022-12-07T14:03:04;5.70;99.90
29777;DHT22;16677;52.224;7.484;2022-12-07T14:05:33;5.80;99.90
29777;DHT22;16677;52.224;7.484;2022-12-07T14:10:40;5.70;99.90
29777;DHT22;16677;52.224;7.484;2022-12-07T14:13:31;5.70;99.90
29777;DHT22;16677;52.224;7.484;2022-12-07T14:15:58;5.60;99.90
29777;DHT22;16677;52.224;7.484;2022-12-07T14:18:28;5.60;99.90
29777;DHT22;16677;52.224;7.484;2022-12-07T14:23:39;5.60;99.90
29777;DHT22;16677;52.224;7.484;2022-12-07T14:28:37;5.50;99.90
29777;DHT22;16677;52.224;7.484;2022-12-07T14:33:49;5.50;99.90
29777;DHT22;16677;52.224;7.484;2022-12-07T14:36:16;5.50;99.90
29777;DHT22;16677;52.224;7.484;2022-12-07T14:38:43;5.50;99.90
29777;DHT22;16677;52.224;7.484;2022-12-07T14:41:15;5.50;99.90
29777;DHT22;16677;52.224;7.484;2022-12-07T14:44:01;5.50;99.90
29777;DHT22;16677;52.224;7.484;2022-12-07T14:46:49;5.50;99.90
29777;DHT22;16677;52.224;7.484;2022-12-07T14:49:36;5.50;99.90
29777;DHT22;16677;52.224;7.484;2022-12-07T14:52:05;5.40;99.90
29777;DHT22;16677;52.224;7.484;2022-12-07T14:54:52;5.30;99.90
29777;DHT22;16677;52.224;7.484;2022-12-07T14:57:19;5.30;99.90
29777;DHT22;16677;52.224;7.484;2022-12-07T14:59:46;5.20;99.90
29777;DHT22;16677;52.224;7.484;2022-12-07T15:02:14;5.20;99.90
29777;DHT22;16677;52.224;7.484;2022-12-07T15:04:41;5.20;99.90
29777;DHT22;16677;52.224;7.484;2022-12-07T15:07:19;5.20;99.90
29777;DHT22;16677;52.224;7.484;2022-12-07T15:09:47;5.20;99.90
29777;DHT22;16677;52.224;7.484;2022-12-07T15:12:14;5.20;99.90
29777;DHT22;16677;52.224;7.484;2022-12-07T15:14:41;5.30;99.90
29777;DHT22;16677;52.224;7.484;2022-12-07T15:17:11;5.10;99.90
29777;DHT22;16677;52.224;7.484;2022-12-07T15:19:53;5.20;99.90
29777;DHT22;16677;52.224;7.484;2022-12-07T15:22:20;5.20;99.90
29777;DHT22;16677;52.224;7.484;2022-12-07T15:24:47;5.10;99.90
29777;DHT22;16677;52.224;7.484;2022-12-07T15:27:14;5.10;99.90
29777;DHT22;16677;52.224;7.484;2022-12-07T15:29:41;5.20;99.90
29777;DHT22;16677;52.224;7.484;2022-12-07T15:32:08;5.10;99.90
29777;DHT22;16677;52.224;7.484;2022-12-07T15:34:35;5.10;99.90
29777;DHT22;16677;52.224;7.484;2022-12-07T15:37:07;5.00;99.90
29777;DHT22;16677;52.224;7.484;2022-12-07T15:39:38;5.00;99.90
29777;DHT22;16677;52.224;7.484;2022-12-07T15:42:05;5.00;99.90
29777;DHT22;16677;52.224;7.484;2022-12-07T15:44:32;4.90;99.90
29777;DHT22;16677;52.224;7.484;2022-12-07T15:47:17;4.90;99.90
29777;DHT22;16677;52.224;7.484;2022-12-07T15:49:44;4.90;99.90
29777;DHT22;16677;52.224;7.484;2022-12-07T15:52:11;4.80;99.90
29777;DHT22;16677;52.224;7.484;2022-12-07T15:54:38;4.80;99.90
29777;DHT22;16677;52.224;7.484;2022-12-07T15:57:06;4.80;99.90
29777;DHT22;16677;52.224;7.484;2022-12-07T15:59:33;4.90;99.90
29777;DHT22;16677;52.224;7.484;2022-12-07T16:02:00;4.90;99.90
29777;DHT22;16677;52.224;7.484;2022-12-07T16:04:28;4.90;99.90
29777;DHT22;16677;52.224;7.484;2022-12-07T16:06:56;4.80;99.90
29777;DHT22;16677;52.224;7.484;2022-12-07T16:09:23;4.80;99.90
29777;DHT22;16677;52.224;7.484;2022-12-07T16:11:50;4.80;99.90
29777;DHT22;16677;52.224;7.484;2022-12-07T16:14:17;4.80;99.90
29777;DHT22;16677;52.224;7.484;2022-12-07T16:16:44;4.70;99.90
29777;DHT22;16677;52.224;7.484;2022-12-07T16:19:11;4.70;99.90
29777;DHT22;16677;52.224;7.484;2022-12-07T16:21:38;4.70;99.90
29777;DHT22;16677;52.224;7.484;2022-12-07T16:24:06;4.70;99.90
29777;DHT22;16677;52.224;7.484;2022-12-07T16:26:34;5.00;99.90
29777;DHT22;16677;52.224;7.484;2022-12-07T16:29:01;4.70;99.90
29777;DHT22;16677;52.224;7.484;2022-12-07T16:31:28;4.70;99.90
29777;DHT22;16677;52.224;7.484;2022-12-07T16:33:57;4.70;99.90
29777;DHT22;16677;52.224;7.484;2022-12-07T16:36:25;4.70;99.90
29777;DHT22;16677;52.224;7.484;2022-12-07T16:39:14;4.70;99.90
29777;DHT22;16677;52.224;7.484;2022-12-07T16:41:41;4.70;99.90
29777;DHT22;16677;52.224;7.484;2022-12-07T16:44:11;4.70;99.90
29777;DHT22;16677;52.224;7.484;2022-12-07T16:46:39;4.70;99.90
29777;DHT22;16677;52.224;7.484;2022-12-07T16:49:08;4.60;99.90
29777;DHT22;16677;52.224;7.484;2022-12-07T16:51:36;4.60;99.90
29777;DHT22;16677;52.224;7.484;2022-12-07T16:54:03;4.70;99.90
29777;DHT22;16677;52.224;7.484;2022-12-07T16:56:30;4.70;99.90
29777;DHT22;16677;52.224;7.484;2022-12-07T16:59:00;4.70;99.90
29777;DHT22;16677;52.224;7.484;2022-12-07T17:01:27;4.70;99.90
29777;DHT22;16677;52.224;7.484;2022-12-07T17:03:58;4.70;99.90
29777;DHT22;16677;52.224;7.484;2022-12-07T17:06:27;4.70;99.90
29777;DHT22;16677;52.224;7.484;2022-12-07T17:08:55;4.60;99.90
29777;DHT22;16677;52.224;7.484;2022-12-07T17:11:28;4.60;99.90
29777;DHT22;16677;52.224;7.484;2022-12-07T17:13:57;4.60;99.90
29777;DHT22;16677;52.224;7.484;2022-12-07T17:16:43;4.60;99.90
29777;DHT22;16677;52.224;7.484;2022-12-07T17:19:13;4.60;99.90
29777;DHT22;16677;52.224;7.484;2022-12-07T17:21:41;4.60;99.90
29777;DHT22;16677;52.224;7.484;2022-12-07T17:24:10;4.50;99.90
29777;DHT22;16677;52.224;7.484;2022-12-07T17:26:38;4.50;99.90
29777;DHT22;16677;52.224;7.484;2022-12-07T17:29:06;4.50;99.90
29777;DHT22;16677;52.224;7.484;2022-12-07T17:31:35;4.60;99.90
29777;DHT22;16677;52.224;7.484;2022-12-07T17:34:03;4.60;99.90
29777;DHT22;16677;52.224;7.484;2022-12-07T17:36:31;4.60;99.90
29777;DHT22;16677;52.224;7.484;2022-12-07T17:38:58;4.60;99.90
29777;DHT22;16677;52.224;7.484;2022-12-07T17:41:27;4.70;99.90
29777;DHT22;16677;52.224;7.484;2022-12-07T17:44:17;4.60;99.90
29777;DHT22;16677;52.224;7.484;2022-12-07T17:46:46;4.70;99.90
29777;DHT22;16677;52.224;7.484;2022-12-07T17:49:14;4.70;99.90
29777;DHT22;16677;52.224;7.484;2022-12-07T17:51:41;4.70;99.90
29777;DHT22;16677;52.224;7.484;2022-12-07T17:54:26;4.70;99.90
29777;DHT22;16677;52.224;7.484;2022-12-07T17:56:53;4.80;99.90
29777;DHT22;16677;52.224;7.484;2022-12-07T17:59:20;4.80;99.90
29777;DHT22;16677;52.224;7.484;2022-12-07T18:01:47;4.80;99.90
29777;DHT22;16677;52.224;7.484;2022-12-07T18:04:14;4.80;99.90
29777;DHT22;16677;52.224;7.484;2022-12-07T18:06:41;4.80;99.90
29777;DHT22;16677;52.224;7.484;2022-12-07T18:09:14;4.70;99.90
29777;DHT22;16677;52.224;7.484;2022-12-07T18:11:41;4.70;99.90
29777;DHT22;16677;52.224;7.484;2022-12-07T18:14:08;4.70;99.90
29777;DHT22;16677;52.224;7.484;2022-12-07T18:16:35;4.70;99.90
29777;DHT22;16677;52.224;7.484;2022-12-07T18:19:04;4.60;99.90
29777;DHT22;16677;52.224;7.484;2022-12-07T18:21:31;4.50;99.90
29777;DHT22;16677;52.224;7.484;2022-12-07T18:24:00;4.50;99.90
29777;DHT22;16677;52.224;7.484;2022-12-07T18:26:30;4.40;99.90
29777;DHT22;16677;52.224;7.484;2022-12-07T18:29:00;4.40;99.90
29777;DHT22;16677;52.224;7.484;2022-12-07T18:31:28;4.40;99.90
29777;DHT22;16677;52.224;7.484;2022-12-07T18:33:55;4.40;99.90
29777;DHT22;16677;52.224;7.484;2022-12-07T18:36:26;4.30;99.90
29777;DHT22;16677;52.224;7.484;2022-12-07T18:38:53;4.30;99.90
29777;DHT22;16677;52.224;7.484;2022-12-07T18:41:20;4.40;99.90
29777;DHT22;16677;52.224;7.484;2022-12-07T18:43:47;4.30;99.90
29777;DHT22;16677;52.224;7.484;2022-12-07T18:46:16;4.30;99.90
29777;DHT22;16677;52.224;7.484;2022-12-07T18:48:44;4.30;99.90
29777;DHT22;16677;52.224;7.484;2022-12-07T18:51:13;4.30;99.90
29777;DHT22;16677;52.224;7.484;2022-12-07T18:53:40;4.30;99.90
29777;DHT22;16677;52.224;7.484;2022-12-07T18:58:53;4.30;99.90